sensor_id;sensor_type;location;lat;lon;timestamp;noise_LAeq;noise_LA_min;noise_LA_max;noise_LA01;noise_LA95
18377;Laerm;9315;52.624;13.544;2023-02-01T00:01:10;59.69;40.12;78.02;;
18377;Laerm;9315;52.624;13.544;2023-02-01T00:03:37;60.13;39.56;76.96;;
18377;Laerm;9315;52.624;13.544;2023-02-01T00:06:04;57.84;39.83;74.27;;
18377;Laerm;9315;52.624;13.544;2023-02-01T00:08:32;64.03;42.16;80.16;;
18377;Laerm;9315;52.624;13.544;2023-02-01T00:11:06;67.93;40.48;83.30;;
18377;Laerm;9315;52.624;13.544;2023-02-01T00:13:38;58.72;40.14;78.20;;
18377;Laerm;9315;52.624;13.544;2023-02-01T00:16:17;62.32;41.22;78.66;;
18377;Laerm;9315;52.624;13.544;2023-02-01T00:18:47;57.78;39.56;76.89;;
18377;Laerm;9315;52.624;13.544;2023-02-01T00:21:19;53.77;40.47;71.76;;
18377;Laerm;9315;52.624;13.544;2023-02-01T00:23:47;59.93;39.45;80.08;;
18377;Laerm;9315;52.624;13.544;2023-02-01T00:26:26;58.65;38.99;77.77;;
18377;Laerm;9315;52.624;13.544;2023-02-01T00:28:54;62.18;41.78;78.90;;
18377;Laerm;9315;52.624;13.544;2023-02-01T00:31:21;46.10;40.08;60.79;;
18377;Laerm;9315;52.624;13.544;2023-02-01T00:33:49;43.64;38.56;62.60;;
18377;Laerm;9315;52.624;13.544;2023-02-01T00:36:16;43.36;38.51;56.26;;
18377;Laerm;9315;52.624;13.544;2023-02-01T00:38:44;59.48;38.84;77.15;;
18377;Laerm;9315;52.624;13.544;2023-02-01T00:41:14;61.83;41.58;79.33;;
18377;Laerm;9315;52.624;13.544;2023-02-01T00:43:42;58.27;41.04;74.85;;
18377;Laerm;9315;52.624;13.544;2023-02-01T00:46:11;65.43;40.74;84.82;;
18377;Laerm;9315;52.624;13.544;2023-02-01T00:48:39;59.48;41.25;78.75;;
18377;Laerm;9315;52.624;13.544;2023-02-01T00:51:15;46.31;41.30;61.49;;
18377;Laerm;9315;52.624;13.544;2023-02-01T00:53:43;60.71;42.22;77.78;;
18377;Laerm;9315;52.624;13.544;2023-02-01T00:56:10;63.54;40.54;79.39;;
18377;Laerm;9315;52.624;13.544;2023-02-01T00:58:38;46.57;39.44;66.34;;
18377;Laerm;9315;52.624;13.544;2023-02-01T01:01:22;47.76;39.56;66.57;;
18377;Laerm;9315;52.624;13.544;2023-02-01T01:03:55;45.87;39.19;64.47;;
18377;Laerm;9315;52.624;13.544;2023-02-01T01:06:29;59.59;41.24;77.00;;
18377;Laerm;9315;52.624;13.544;2023-02-01T01:09:01;59.65;39.65;78.19;;
18377;Laerm;9315;52.624;13.544;2023-02-01T01:11:34;62.49;39.15;81.46;;
18377;Laerm;9315;52.624;13.544;2023-02-01T01:14:03;66.47;39.94;84.03;;
18377;Laerm;9315;52.624;13.544;2023-02-01T01:16:32;62.47;39.99;77.47;;
18377;Laerm;9315;52.624;13.544;2023-02-01T01:19:00;45.47;39.64;58.15;;
18377;Laerm;9315;52.624;13.544;2023-02-01T01:21:28;45.22;41.71;55.63;;
18377;Laerm;9315;52.624;13.544;2023-02-01T01:23:55;50.42;41.24;70.32;;
18377;Laerm;9315;52.624;13.544;2023-02-01T01:26:26;65.26;42.11;82.46;;
18377;Laerm;9315;52.624;13.544;2023-02-01T01:28:56;63.55;43.03;78.29;;
18377;Laerm;9315;52.624;13.544;2023-02-01T01:31:24;65.82;41.32;79.49;;
18377;Laerm;9315;52.624;13.544;2023-02-01T01:33:55;51.31;39.57;69.24;;
18377;Laerm;9315;52.624;13.544;2023-02-01T01:36:24;61.28;40.14;79.32;;
18377;Laerm;9315;52.624;13.544;2023-02-01T01:38:51;59.06;40.19;78.70;;
18377;Laerm;9315;52.624;13.544;2023-02-01T01:41:29;44.27;38.48;53.57;;
18377;Laerm;9315;52.624;13.544;2023-02-01T01:44:53;44.23;40.05;53.21;;
18377;Laerm;9315;52.624;13.544;2023-02-01T01:46:55;48.23;37.73;71.85;;
18377;Laerm;9315;52.624;13.544;2023-02-01T01:49:24;43.72;38.73;58.41;;
18377;Laerm;9315;52.624;13.544;2023-02-01T01:52:01;47.49;40.29;63.67;;
18377;Laerm;9315;52.624;13.544;2023-02-01T01:54:33;58.43;41.35;77.74;;
18377;Laerm;9315;52.624;13.544;2023-02-01T01:57:18;57.36;41.17;76.79;;
18377;Laerm;9315;52.624;13.544;2023-02-01T02:00:06;47.18;40.32;69.13;;
18377;Laerm;9315;52.624;13.544;2023-02-01T02:02:36;59.56;40.17;77.65;;
18377;Laerm;9315;52.624;13.544;2023-02-01T02:05:05;55.06;38.86;71.66;;
18377;Laerm;9315;52.624;13.544;2023-02-01T02:07:39;44.01;39.66;56.70;;
18377;Laerm;9315;52.624;13.544;2023-02-01T02:10:10;60.52;41.38;77.48;;
18377;Laerm;9315;52.624;13.544;2023-02-01T02:12:44;67.32;42.07;80.25;;
18377;Laerm;9315;52.624;13.544;2023-02-01T02:15:14;62.46;40.91;78.10;;
18377;Laerm;9315;52.624;13.544;2023-02-01T02:18:00;67.26;41.68;85.29;;
18377;Laerm;9315;52.624;13.544;2023-02-01T02:27:03;45.59;40.88;63.90;;
18377;Laerm;9315;52.624;13.544;2023-02-01T02:36:34;62.41;39.68;77.72;;
18377;Laerm;9315;52.624;13.544;2023-02-01T02:50:51;58.43;39.60;75.06;;
18377;Laerm;9315;52.624;13.544;2023-02-01T02:56:43;62.27;42.97;76.72;;
18377;Laerm;9315;52.624;13.544;2023-02-01T02:59:30;63.01;41.90;82.52;;
18377;Laerm;9315;52.624;13.544;2023-02-01T03:02:17;65.78;43.39;79.13;;
18377;Laerm;9315;52.624;13.544;2023-02-01T03:05:04;64.84;41.74;82.06;;
18377;Laerm;9315;52.624;13.544;2023-02-01T03:07:55;58.67;41.32;76.71;;
18377;Laerm;9315;52.624;13.544;2023-02-01T03:10:48;64.42;40.78;80.27;;
18377;Laerm;9315;52.624;13.544;2023-02-01T03:19:23;66.14;42.88;83.81;;
18377;Laerm;9315;52.624;13.544;2023-02-01T03:22:08;62.36;42.22;77.49;;
18377;Laerm;9315;52.624;13.544;2023-02-01T03:25:05;66.69;42.64;80.39;;
18377;Laerm;9315;52.624;13.544;2023-02-01T03:28:15;65.99;43.25;84.24;;
18377;Laerm;9315;52.624;13.544;2023-02-01T03:30:44;67.10;43.48;84.76;;
18377;Laerm;9315;52.624;13.544;2023-02-01T03:33:23;69.23;42.99;84.87;;
18377;Laerm;9315;52.624;13.544;2023-02-01T03:42:01;67.09;44.24;77.64;;
18377;Laerm;9315;52.624;13.544;2023-02-01T03:44:43;59.44;42.48;74.47;;
18377;Laerm;9315;52.624;13.544;2023-02-01T03:47:25;69.31;45.61;80.74;;
18377;Laerm;9315;52.624;13.544;2023-02-01T03:50:01;65.89;45.25;77.90;;
18377;Laerm;9315;52.624;13.544;2023-02-01T03:53:12;67.76;45.58;79.91;;
18377;Laerm;9315;52.624;13.544;2023-02-01T03:55:41;62.77;46.00;75.17;;
18377;Laerm;9315;52.624;13.544;2023-02-01T03:58:22;66.60;44.36;77.28;;
18377;Laerm;9315;52.624;13.544;2023-02-01T04:00:59;66.04;45.37;81.97;;
18377;Laerm;9315;52.624;13.544;2023-02-01T04:03:28;67.03;45.69;78.02;;
18377;Laerm;9315;52.624;13.544;2023-02-01T04:05:55;67.89;45.84;78.50;;
18377;Laerm;9315;52.624;13.544;2023-02-01T04:08:24;66.92;46.35;78.62;;
18377;Laerm;9315;52.624;13.544;2023-02-01T04:10:51;69.76;47.59;79.56;;
18377;Laerm;9315;52.624;13.544;2023-02-01T04:13:19;67.36;45.44;85.62;;
18377;Laerm;9315;52.624;13.544;2023-02-01T04:15:47;69.27;46.99;80.92;;
18377;Laerm;9315;52.624;13.544;2023-02-01T04:18:16;70.34;52.04;77.00;;
18377;Laerm;9315;52.624;13.544;2023-02-01T04:20:44;70.59;49.16;80.36;;
18377;Laerm;9315;52.624;13.544;2023-02-01T04:23:11;69.45;48.54;79.40;;
18377;Laerm;9315;52.624;13.544;2023-02-01T04:25:39;68.60;47.29;80.08;;
18377;Laerm;9315;52.624;13.544;2023-02-01T04:28:06;69.12;47.95;78.28;;
18377;Laerm;9315;52.624;13.544;2023-02-01T04:30:34;67.65;49.93;78.63;;
18377;Laerm;9315;52.624;13.544;2023-02-01T04:33:01;70.73;49.58;78.66;;
18377;Laerm;9315;52.624;13.544;2023-02-01T04:35:32;71.49;48.54;84.38;;
18377;Laerm;9315;52.624;13.544;2023-02-01T04:38:00;72.12;57.05;82.67;;
18377;Laerm;9315;52.624;13.544;2023-02-01T04:40:27;69.56;51.42;80.21;;
18377;Laerm;9315;52.624;13.544;2023-02-01T04:42:57;70.87;50.14;81.89;;
18377;Laerm;9315;52.624;13.544;2023-02-01T04:45:24;70.65;51.69;81.04;;
18377;Laerm;9315;52.624;13.544;2023-02-01T04:47:51;68.77;49.29;78.03;;
18377;Laerm;9315;52.624;13.544;2023-02-01T04:50:18;70.43;50.41;80.09;;
18377;Laerm;9315;52.624;13.544;2023-02-01T04:52:45;68.87;49.33;77.61;;
18377;Laerm;9315;52.624;13.544;2023-02-01T04:55:12;72.74;53.05;83.64;;
18377;Laerm;9315;52.624;13.544;2023-02-01T04:57:42;72.37;49.35;83.97;;
18377;Laerm;9315;52.624;13.544;2023-02-01T05:00:11;70.82;51.24;80.56;;
18377;Laerm;9315;52.624;13.544;2023-02-01T05:02:41;71.46;49.98;82.67;;
18377;Laerm;9315;52.624;13.544;2023-02-01T05:05:09;74.03;48.36;90.42;;
18377;Laerm;9315;52.624;13.544;2023-02-01T05:07:38;72.24;49.44;82.97;;
18377;Laerm;9315;52.624;13.544;2023-02-01T05:10:06;73.12;50.77;85.66;;
18377;Laerm;9315;52.624;13.544;2023-02-01T05:12:34;67.68;48.74;78.01;;
18377;Laerm;9315;52.624;13.544;2023-02-01T05:15:37;73.80;53.74;85.77;;
18377;Laerm;9315;52.624;13.544;2023-02-01T05:18:04;72.37;51.37;82.50;;
18377;Laerm;9315;52.624;13.544;2023-02-01T05:20:31;72.29;52.86;79.95;;
18377;Laerm;9315;52.624;13.544;2023-02-01T05:22:58;72.42;50.19;83.25;;
18377;Laerm;9315;52.624;13.544;2023-02-01T05:25:26;71.38;51.97;80.24;;
18377;Laerm;9315;52.624;13.544;2023-02-01T05:27:55;74.25;52.99;86.41;;
18377;Laerm;9315;52.624;13.544;2023-02-01T05:30:22;70.72;52.46;82.69;;
18377;Laerm;9315;52.624;13.544;2023-02-01T05:32:52;72.35;51.05;82.83;;
18377;Laerm;9315;52.624;13.544;2023-02-01T05:35:23;71.71;52.69;80.20;;
18377;Laerm;9315;52.624;13.544;2023-02-01T05:37:50;73.36;51.46;83.76;;
18377;Laerm;9315;52.624;13.544;2023-02-01T05:40:17;72.10;54.28;81.00;;
18377;Laerm;9315;52.624;13.544;2023-02-01T05:42:44;71.91;50.49;82.06;;
18377;Laerm;9315;52.624;13.544;2023-02-01T05:45:11;71.01;50.18;80.62;;
18377;Laerm;9315;52.624;13.544;2023-02-01T05:47:43;72.75;52.68;83.35;;
18377;Laerm;9315;52.624;13.544;2023-02-01T05:50:10;72.57;51.54;79.59;;
18377;Laerm;9315;52.624;13.544;2023-02-01T05:52:37;71.99;50.62;80.74;;
18377;Laerm;9315;52.624;13.544;2023-02-01T05:55:05;71.56;50.94;79.22;;
18377;Laerm;9315;52.624;13.544;2023-02-01T05:57:32;71.38;51.63;79.73;;
18377;Laerm;9315;52.624;13.544;2023-02-01T06:00:00;72.43;51.16;85.57;;
18377;Laerm;9315;52.624;13.544;2023-02-01T06:02:27;70.97;51.72;80.44;;
18377;Laerm;9315;52.624;13.544;2023-02-01T06:04:54;71.61;50.50;82.28;;
18377;Laerm;9315;52.624;13.544;2023-02-01T06:07:21;71.57;50.82;79.20;;
18377;Laerm;9315;52.624;13.544;2023-02-01T06:09:49;72.85;51.16;85.05;;
18377;Laerm;9315;52.624;13.544;2023-02-01T06:12:16;71.62;52.10;82.19;;
18377;Laerm;9315;52.624;13.544;2023-02-01T06:14:43;71.61;49.71;79.96;;
18377;Laerm;9315;52.624;13.544;2023-02-01T06:17:10;70.88;51.21;82.55;;
18377;Laerm;9315;52.624;13.544;2023-02-01T06:19:37;71.95;51.82;77.98;;
18377;Laerm;9315;52.624;13.544;2023-02-01T06:22:05;71.92;50.76;81.28;;
18377;Laerm;9315;52.624;13.544;2023-02-01T06:24:33;72.14;51.13;82.24;;
18377;Laerm;9315;52.624;13.544;2023-02-01T06:27:00;72.86;53.18;83.00;;
18377;Laerm;9315;52.624;13.544;2023-02-01T06:29:27;74.18;55.45;83.15;;
18377;Laerm;9315;52.624;13.544;2023-02-01T06:31:54;76.14;55.21;86.44;;
18377;Laerm;9315;52.624;13.544;2023-02-01T06:34:23;74.66;53.67;84.20;;
18377;Laerm;9315;52.624;13.544;2023-02-01T06:36:50;73.85;52.94;83.11;;
18377;Laerm;9315;52.624;13.544;2023-02-01T06:39:18;77.17;56.53;84.79;;
18377;Laerm;9315;52.624;13.544;2023-02-01T06:41:48;75.89;53.77;85.55;;
18377;Laerm;9315;52.624;13.544;2023-02-01T06:44:16;76.95;56.35;85.70;;
18377;Laerm;9315;52.624;13.544;2023-02-01T06:46:44;76.01;55.02;86.56;;
18377;Laerm;9315;52.624;13.544;2023-02-01T06:49:11;76.18;56.51;84.72;;
18377;Laerm;9315;52.624;13.544;2023-02-01T06:51:38;76.40;52.01;85.04;;
18377;Laerm;9315;52.624;13.544;2023-02-01T06:54:05;76.58;52.81;85.12;;
18377;Laerm;9315;52.624;13.544;2023-02-01T06:56:32;75.10;52.21;84.76;;
18377;Laerm;9315;52.624;13.544;2023-02-01T06:59:01;76.68;51.60;85.93;;
18377;Laerm;9315;52.624;13.544;2023-02-01T07:01:30;76.10;53.31;84.52;;
18377;Laerm;9315;52.624;13.544;2023-02-01T07:03:57;75.96;50.60;84.90;;
18377;Laerm;9315;52.624;13.544;2023-02-01T07:06:24;73.95;51.93;83.45;;
18377;Laerm;9315;52.624;13.544;2023-02-01T07:08:52;74.00;52.07;83.18;;
18377;Laerm;9315;52.624;13.544;2023-02-01T07:11:23;76.97;56.84;88.55;;
18377;Laerm;9315;52.624;13.544;2023-02-01T07:13:51;74.71;51.04;83.64;;
18377;Laerm;9315;52.624;13.544;2023-02-01T07:16:19;74.28;51.35;83.11;;
18377;Laerm;9315;52.624;13.544;2023-02-01T07:18:50;73.29;51.06;85.20;;
18377;Laerm;9315;52.624;13.544;2023-02-01T07:21:19;74.97;50.88;85.35;;
18377;Laerm;9315;52.624;13.544;2023-02-01T07:23:46;75.52;55.08;85.47;;
18377;Laerm;9315;52.624;13.544;2023-02-01T07:26:14;75.70;52.57;86.23;;
18377;Laerm;9315;52.624;13.544;2023-02-01T07:28:43;75.88;50.71;85.50;;
18377;Laerm;9315;52.624;13.544;2023-02-01T07:31:19;75.79;50.36;89.53;;
18377;Laerm;9315;52.624;13.544;2023-02-01T07:33:49;74.02;50.90;83.07;;
18377;Laerm;9315;52.624;13.544;2023-02-01T07:36:19;75.38;51.26;83.54;;
18377;Laerm;9315;52.624;13.544;2023-02-01T07:38:47;75.42;51.98;84.92;;
18377;Laerm;9315;52.624;13.544;2023-02-01T07:41:17;75.34;52.77;85.34;;
18377;Laerm;9315;52.624;13.544;2023-02-01T07:43:45;74.90;50.29;87.61;;
18377;Laerm;9315;52.624;13.544;2023-02-01T07:46:13;74.72;50.24;84.97;;
18377;Laerm;9315;52.624;13.544;2023-02-01T07:48:42;75.22;50.46;85.18;;
18377;Laerm;9315;52.624;13.544;2023-02-01T07:51:15;76.19;52.82;88.72;;
18377;Laerm;9315;52.624;13.544;2023-02-01T07:53:43;75.71;51.30;84.08;;
18377;Laerm;9315;52.624;13.544;2023-02-01T07:56:19;73.42;52.00;86.78;;
18377;Laerm;9315;52.624;13.544;2023-02-01T07:58:49;75.51;54.81;86.77;;
18377;Laerm;9315;52.624;13.544;2023-02-01T08:01:23;78.05;53.35;87.52;;
18377;Laerm;9315;52.624;13.544;2023-02-01T08:03:57;75.93;53.59;86.60;;
18377;Laerm;9315;52.624;13.544;2023-02-01T08:06:32;73.60;53.62;83.60;;
18377;Laerm;9315;52.624;13.544;2023-02-01T08:09:03;76.63;52.89;85.99;;
18377;Laerm;9315;52.624;13.544;2023-02-01T08:11:31;76.88;52.18;86.89;;
18377;Laerm;9315;52.624;13.544;2023-02-01T08:13:58;76.83;56.89;86.38;;
18377;Laerm;9315;52.624;13.544;2023-02-01T08:16:26;76.36;62.03;91.97;;
18377;Laerm;9315;52.624;13.544;2023-02-01T08:18:54;74.66;54.40;84.87;;
18377;Laerm;9315;52.624;13.544;2023-02-01T08:21:26;77.75;53.44;89.62;;
18377;Laerm;9315;52.624;13.544;2023-02-01T08:24:05;76.71;54.54;87.42;;
18377;Laerm;9315;52.624;13.544;2023-02-01T08:26:33;77.38;56.35;94.33;;
18377;Laerm;9315;52.624;13.544;2023-02-01T08:29:04;76.93;52.58;86.07;;
18377;Laerm;9315;52.624;13.544;2023-02-01T08:31:32;77.21;53.50;86.27;;
18377;Laerm;9315;52.624;13.544;2023-02-01T08:34:02;77.65;53.28;90.51;;
18377;Laerm;9315;52.624;13.544;2023-02-01T08:36:40;77.72;53.71;86.98;;
18377;Laerm;9315;52.624;13.544;2023-02-01T08:39:10;75.65;55.16;85.41;;
18377;Laerm;9315;52.624;13.544;2023-02-01T08:41:38;77.55;54.48;88.72;;
18377;Laerm;9315;52.624;13.544;2023-02-01T08:44:05;76.61;55.69;85.26;;
18377;Laerm;9315;52.624;13.544;2023-02-01T08:46:35;76.69;52.30;85.44;;
18377;Laerm;9315;52.624;13.544;2023-02-01T08:49:03;75.87;51.47;86.25;;
18377;Laerm;9315;52.624;13.544;2023-02-01T08:51:32;77.17;52.42;87.15;;
18377;Laerm;9315;52.624;13.544;2023-02-01T08:53:59;78.12;51.99;87.71;;
18377;Laerm;9315;52.624;13.544;2023-02-01T08:56:27;75.84;49.93;85.39;;
18377;Laerm;9315;52.624;13.544;2023-02-01T08:58:55;76.24;53.34;84.64;;
18377;Laerm;9315;52.624;13.544;2023-02-01T09:01:24;76.02;53.75;87.00;;
18377;Laerm;9315;52.624;13.544;2023-02-01T09:03:52;76.41;53.14;86.99;;
18377;Laerm;9315;52.624;13.544;2023-02-01T09:06:19;76.24;49.43;86.24;;
18377;Laerm;9315;52.624;13.544;2023-02-01T09:08:46;76.30;52.92;85.66;;
18377;Laerm;9315;52.624;13.544;2023-02-01T09:11:17;78.06;54.79;88.71;;
18377;Laerm;9315;52.624;13.544;2023-02-01T09:13:47;76.80;53.58;88.97;;
18377;Laerm;9315;52.624;13.544;2023-02-01T09:16:14;76.83;56.35;85.85;;
18377;Laerm;9315;52.624;13.544;2023-02-01T09:18:42;76.73;51.28;86.71;;
18377;Laerm;9315;52.624;13.544;2023-02-01T09:21:28;74.48;54.08;83.72;;
18377;Laerm;9315;52.624;13.544;2023-02-01T09:23:56;75.40;51.53;84.40;;
18377;Laerm;9315;52.624;13.544;2023-02-01T09:26:23;74.05;52.67;85.18;;
18377;Laerm;9315;52.624;13.544;2023-02-01T09:28:59;76.64;52.46;86.72;;
18377;Laerm;9315;52.624;13.544;2023-02-01T09:31:27;75.71;54.77;84.71;;
18377;Laerm;9315;52.624;13.544;2023-02-01T09:33:54;75.18;49.88;83.94;;
18377;Laerm;9315;52.624;13.544;2023-02-01T09:36:22;74.29;52.54;84.43;;
18377;Laerm;9315;52.624;13.544;2023-02-01T09:38:50;76.22;55.14;86.89;;
18377;Laerm;9315;52.624;13.544;2023-02-01T09:47:36;73.12;54.99;81.22;;
18377;Laerm;9315;52.624;13.544;2023-02-01T09:50:20;75.21;50.37;84.09;;
18377;Laerm;9315;52.624;13.544;2023-02-01T09:55:50;75.28;55.39;87.84;;
18377;Laerm;9315;52.624;13.544;2023-02-01T10:01:48;75.05;55.74;84.25;;
18377;Laerm;9315;52.624;13.544;2023-02-01T10:04:16;72.86;50.99;83.54;;
18377;Laerm;9315;52.624;13.544;2023-02-01T10:10:36;74.89;50.08;87.23;;
18377;Laerm;9315;52.624;13.544;2023-02-01T10:13:38;74.39;50.89;86.56;;
18377;Laerm;9315;52.624;13.544;2023-02-01T10:17:01;74.11;53.15;83.82;;
18377;Laerm;9315;52.624;13.544;2023-02-01T10:23:51;74.30;53.96;83.00;;
18377;Laerm;9315;52.624;13.544;2023-02-01T10:26:27;74.27;51.30;88.76;;
18377;Laerm;9315;52.624;13.544;2023-02-01T10:29:04;71.42;50.82;80.28;;
18377;Laerm;9315;52.624;13.544;2023-02-01T10:31:36;75.55;56.37;87.38;;
18377;Laerm;9315;52.624;13.544;2023-02-01T10:34:21;74.76;53.75;85.08;;
18377;Laerm;9315;52.624;13.544;2023-02-01T10:37:31;73.27;51.70;83.22;;
18377;Laerm;9315;52.624;13.544;2023-02-01T10:42:58;75.50;53.24;86.82;;
18377;Laerm;9315;52.624;13.544;2023-02-01T10:45:30;72.90;49.37;82.17;;
18377;Laerm;9315;52.624;13.544;2023-02-01T10:48:02;72.74;49.50;81.36;;
18377;Laerm;9315;52.624;13.544;2023-02-01T10:50:57;73.60;51.62;87.77;;
18377;Laerm;9315;52.624;13.544;2023-02-01T10:53:55;73.50;53.77;84.45;;
18377;Laerm;9315;52.624;13.544;2023-02-01T10:56:27;72.19;48.90;81.75;;
18377;Laerm;9315;52.624;13.544;2023-02-01T10:59:11;74.70;56.42;82.98;;
18377;Laerm;9315;52.624;13.544;2023-02-01T11:01:47;75.86;55.01;87.19;;
18377;Laerm;9315;52.624;13.544;2023-02-01T11:04:20;74.67;53.67;85.55;;
18377;Laerm;9315;52.624;13.544;2023-02-01T11:07:23;75.58;54.04;84.61;;
18377;Laerm;9315;52.624;13.544;2023-02-01T11:09:55;75.02;52.35;86.16;;
18377;Laerm;9315;52.624;13.544;2023-02-01T11:12:36;72.99;50.33;84.13;;
18377;Laerm;9315;52.624;13.544;2023-02-01T11:15:21;74.77;51.26;83.36;;
18377;Laerm;9315;52.624;13.544;2023-02-01T11:17:51;74.11;50.36;83.92;;
18377;Laerm;9315;52.624;13.544;2023-02-01T11:22:58;75.57;51.21;86.54;;
18377;Laerm;9315;52.624;13.544;2023-02-01T11:25:25;75.22;52.88;84.40;;
18377;Laerm;9315;52.624;13.544;2023-02-01T11:27:55;72.67;51.84;82.08;;
18377;Laerm;9315;52.624;13.544;2023-02-01T11:30:37;73.71;49.96;83.53;;
18377;Laerm;9315;52.624;13.544;2023-02-01T11:33:17;74.14;50.09;84.52;;
18377;Laerm;9315;52.624;13.544;2023-02-01T11:35:47;75.83;51.13;85.02;;
18377;Laerm;9315;52.624;13.544;2023-02-01T11:38:33;72.33;50.80;82.81;;
18377;Laerm;9315;52.624;13.544;2023-02-01T11:41:27;73.91;51.14;85.12;;
18377;Laerm;9315;52.624;13.544;2023-02-01T11:44:00;73.76;52.90;84.72;;
18377;Laerm;9315;52.624;13.544;2023-02-01T11:46:34;71.93;52.10;80.59;;
18377;Laerm;9315;52.624;13.544;2023-02-01T11:49:24;74.38;52.26;82.14;;
18377;Laerm;9315;52.624;13.544;2023-02-01T12:01:38;74.15;51.43;84.61;;
18377;Laerm;9315;52.624;13.544;2023-02-01T12:17:21;73.21;50.54;82.46;;
18377;Laerm;9315;52.624;13.544;2023-02-01T12:35:56;71.78;52.84;78.65;;
18377;Laerm;9315;52.624;13.544;2023-02-01T12:38:51;74.15;56.41;87.62;;
18377;Laerm;9315;52.624;13.544;2023-02-01T12:42:03;71.07;52.53;81.50;;
18377;Laerm;9315;52.624;13.544;2023-02-01T12:47:49;73.49;55.83;81.46;;
18377;Laerm;9315;52.624;13.544;2023-02-01T12:50:37;73.19;52.21;84.76;;
18377;Laerm;9315;52.624;13.544;2023-02-01T12:56:00;77.78;53.17;85.76;;
18377;Laerm;9315;52.624;13.544;2023-02-01T12:58:53;80.63;57.75;97.82;;
18377;Laerm;9315;52.624;13.544;2023-02-01T13:01:44;80.82;57.21;89.57;;
18377;Laerm;9315;52.624;13.544;2023-02-01T13:07:21;79.48;54.91;88.62;;
18377;Laerm;9315;52.624;13.544;2023-02-01T13:13:30;78.04;55.48;86.74;;
18377;Laerm;9315;52.624;13.544;2023-02-01T13:16:21;77.86;50.97;85.96;;
18377;Laerm;9315;52.624;13.544;2023-02-01T13:25:28;76.46;51.52;85.81;;
18377;Laerm;9315;52.624;13.544;2023-02-01T13:28:11;75.80;51.73;85.23;;
18377;Laerm;9315;52.624;13.544;2023-02-01T13:34:51;77.22;53.51;85.82;;
18377;Laerm;9315;52.624;13.544;2023-02-01T13:41:31;77.78;55.56;85.80;;
18377;Laerm;9315;52.624;13.544;2023-02-01T13:43:33;75.06;52.81;86.11;;
18377;Laerm;9315;52.624;13.544;2023-02-01T13:46:07;78.26;55.29;87.23;;
18377;Laerm;9315;52.624;13.544;2023-02-01T13:48:54;76.13;56.44;89.15;;
18377;Laerm;9315;52.624;13.544;2023-02-01T13:51:44;77.08;58.44;86.65;;
18377;Laerm;9315;52.624;13.544;2023-02-01T13:54:32;76.14;56.12;84.84;;
18377;Laerm;9315;52.624;13.544;2023-02-01T13:57:03;76.62;58.84;88.79;;
18377;Laerm;9315;52.624;13.544;2023-02-01T14:13:39;78.27;55.55;100.51;;
18377;Laerm;9315;52.624;13.544;2023-02-01T14:21:29;75.22;54.91;85.67;;
18377;Laerm;9315;52.624;13.544;2023-02-01T14:26:55;74.03;57.37;85.94;;
18377;Laerm;9315;52.624;13.544;2023-02-01T14:29:39;76.48;58.17;84.64;;
18377;Laerm;9315;52.624;13.544;2023-02-01T14:32:26;77.17;53.89;84.73;;
18377;Laerm;9315;52.624;13.544;2023-02-01T14:35:01;76.45;56.05;85.26;;
18377;Laerm;9315;52.624;13.544;2023-02-01T14:37:36;75.88;55.95;85.79;;
18377;Laerm;9315;52.624;13.544;2023-02-01T14:42:49;74.80;56.51;85.42;;
18377;Laerm;9315;52.624;13.544;2023-02-01T14:50:44;75.40;55.30;84.07;;
18377;Laerm;9315;52.624;13.544;2023-02-01T14:59:12;76.39;55.38;85.99;;
18377;Laerm;9315;52.624;13.544;2023-02-01T15:01:53;76.41;53.52;85.79;;
18377;Laerm;9315;52.624;13.544;2023-02-01T15:04:26;75.75;55.18;86.49;;
18377;Laerm;9315;52.624;13.544;2023-02-01T15:06:57;76.86;61.56;85.08;;
18377;Laerm;9315;52.624;13.544;2023-02-01T15:09:38;76.16;59.60;83.39;;
18377;Laerm;9315;52.624;13.544;2023-02-01T15:15:22;76.02;53.95;85.80;;
18377;Laerm;9315;52.624;13.544;2023-02-01T15:17:57;76.59;56.38;84.36;;
18377;Laerm;9315;52.624;13.544;2023-02-01T15:20:32;77.25;54.46;85.87;;
18377;Laerm;9315;52.624;13.544;2023-02-01T15:23:16;75.94;54.76;85.10;;
18377;Laerm;9315;52.624;13.544;2023-02-01T15:25:46;78.52;56.60;89.31;;
18377;Laerm;9315;52.624;13.544;2023-02-01T15:28:16;77.73;55.74;85.46;;
18377;Laerm;9315;52.624;13.544;2023-02-01T15:31:04;76.93;52.99;86.24;;
18377;Laerm;9315;52.624;13.544;2023-02-01T15:33:32;76.53;53.88;88.42;;
18377;Laerm;9315;52.624;13.544;2023-02-01T15:38:38;77.67;58.32;85.35;;
18377;Laerm;9315;52.624;13.544;2023-02-01T15:41:18;76.40;53.22;86.51;;
18377;Laerm;9315;52.624;13.544;2023-02-01T15:46:35;76.43;55.17;85.38;;
18377;Laerm;9315;52.624;13.544;2023-02-01T15:49:03;76.04;53.40;83.61;;
18377;Laerm;9315;52.624;13.544;2023-02-01T15:51:32;76.82;54.16;85.71;;
18377;Laerm;9315;52.624;13.544;2023-02-01T15:54:06;76.93;54.01;83.39;;
18377;Laerm;9315;52.624;13.544;2023-02-01T15:56:40;75.80;53.64;83.26;;
18377;Laerm;9315;52.624;13.544;2023-02-01T15:59:45;76.19;51.73;84.73;;
18377;Laerm;9315;52.624;13.544;2023-02-01T16:03:05;75.47;53.14;85.36;;
18377;Laerm;9315;52.624;13.544;2023-02-01T16:05:42;78.03;55.28;87.20;;
18377;Laerm;9315;52.624;13.544;2023-02-01T16:08:22;76.75;56.68;87.09;;
18377;Laerm;9315;52.624;13.544;2023-02-01T16:10:58;76.06;51.43;84.89;;
18377;Laerm;9315;52.624;13.544;2023-02-01T16:13:26;74.83;50.81;83.13;;
18377;Laerm;9315;52.624;13.544;2023-02-01T16:15:53;76.63;51.62;84.75;;
18377;Laerm;9315;52.624;13.544;2023-02-01T16:18:23;75.50;50.18;83.78;;
18377;Laerm;9315;52.624;13.544;2023-02-01T16:20:50;77.54;54.52;86.91;;
18377;Laerm;9315;52.624;13.544;2023-02-01T16:23:18;76.75;53.80;87.38;;
18377;Laerm;9315;52.624;13.544;2023-02-01T16:25:47;76.45;55.19;83.72;;
18377;Laerm;9315;52.624;13.544;2023-02-01T16:28:14;75.66;52.25;87.21;;
18377;Laerm;9315;52.624;13.544;2023-02-01T16:30:41;75.22;53.18;84.50;;
18377;Laerm;9315;52.624;13.544;2023-02-01T16:33:16;75.27;53.56;86.18;;
18377;Laerm;9315;52.624;13.544;2023-02-01T16:35:46;73.90;50.05;83.20;;
18377;Laerm;9315;52.624;13.544;2023-02-01T16:38:17;75.08;52.84;84.72;;
18377;Laerm;9315;52.624;13.544;2023-02-01T16:40:52;74.76;58.31;83.43;;
18377;Laerm;9315;52.624;13.544;2023-02-01T16:43:24;79.95;53.95;100.94;;
18377;Laerm;9315;52.624;13.544;2023-02-01T16:45:55;75.27;54.39;85.13;;
18377;Laerm;9315;52.624;13.544;2023-02-01T16:48:36;73.86;50.62;82.76;;
18377;Laerm;9315;52.624;13.544;2023-02-01T16:51:13;74.13;51.49;83.45;;
18377;Laerm;9315;52.624;13.544;2023-02-01T16:53:44;73.29;54.01;83.44;;
18377;Laerm;9315;52.624;13.544;2023-02-01T16:56:31;73.68;51.68;83.20;;
18377;Laerm;9315;52.624;13.544;2023-02-01T16:58:59;72.03;51.07;82.77;;
18377;Laerm;9315;52.624;13.544;2023-02-01T17:01:29;73.90;50.70;87.08;;
18377;Laerm;9315;52.624;13.544;2023-02-01T17:03:56;73.59;50.69;83.97;;
18377;Laerm;9315;52.624;13.544;2023-02-01T17:06:27;74.15;51.23;84.29;;
18377;Laerm;9315;52.624;13.544;2023-02-01T17:08:58;73.44;51.16;84.34;;
18377;Laerm;9315;52.624;13.544;2023-02-01T17:11:27;72.92;55.21;81.96;;
18377;Laerm;9315;52.624;13.544;2023-02-01T17:14:20;73.07;52.30;83.37;;
18377;Laerm;9315;52.624;13.544;2023-02-01T17:16:49;76.74;52.26;89.23;;